createdAt,value
2022-11-05T00:03:44.270Z,60.39
2022-11-05T00:09:01.380Z,59.76
2022-11-05T00:14:23.669Z,60.28
2022-11-05T00:19:27.006Z,60.22
2022-11-05T00:24:47.583Z,60.28
2022-11-05T00:29:52.620Z,60.17
2022-11-05T00:34:55.716Z,59.88
2022-11-05T00:39:59.169Z,60.33
2022-11-05T00:45:03.818Z,59.91
2022-11-05T00:50:10.929Z,59.97
2022-11-05T00:55:14.442Z,59.49
2022-11-05T01:00:19.643Z,59.24
2022-11-05T01:05:23.077Z,59.57
2022-11-05T01:10:26.715Z,59.53
2022-11-05T01:15:31.501Z,59.14
2022-11-05T01:20:35.073Z,59.29
2022-11-05T01:25:38.374Z,59.22
2022-11-05T01:30:43.159Z,59.35
2022-11-05T01:35:46.410Z,59.29
2022-11-05T01:40:49.755Z,59.34
2022-11-05T01:45:58.890Z,59.58
2022-11-05T01:51:05.334Z,59.73
2022-11-05T01:56:12.353Z,59.18
2022-11-05T02:01:17.328Z,59.66
2022-11-05T02:06:21.276Z,59.08
2022-11-05T02:11:24.716Z,59.04
2022-11-05T02:16:40.023Z,58.71
2022-11-05T02:22:26.205Z,58.69
2022-11-05T02:28:00.377Z,59.13
2022-11-05T02:33:28.524Z,58.75
2022-11-05T02:38:40.908Z,59.24
2022-11-05T02:43:55.804Z,59.27
2022-11-05T02:49:10.183Z,58.49
2022-11-05T02:54:18.525Z,58.71
2022-11-05T02:59:22.044Z,58.75
2022-11-05T03:04:27.689Z,59.00
2022-11-05T03:10:17.716Z,58.98
2022-11-05T03:15:31.631Z,59.04
2022-11-05T03:20:41.022Z,58.64
2022-11-05T03:25:50.805Z,58.47
2022-11-05T03:30:58.074Z,59.09
2022-11-05T03:36:07.271Z,59.21
2022-11-05T03:41:15.731Z,58.80
2022-11-05T03:46:23.987Z,59.32
2022-11-05T03:51:38.025Z,59.36
2022-11-05T03:56:46.810Z,59.03
2022-11-05T04:01:51.482Z,59.18
2022-11-05T04:07:13.539Z,59.20
2022-11-05T04:12:46.006Z,59.78
2022-11-05T04:17:49.443Z,59.58
2022-11-05T04:23:17.489Z,59.45
2022-11-05T04:28:20.977Z,59.83
2022-11-05T04:33:24.347Z,59.52
2022-11-05T04:38:29.004Z,60.23
2022-11-05T04:43:32.222Z,60.68
2022-11-05T04:48:35.624Z,60.67
2022-11-05T04:53:40.290Z,60.23
2022-11-05T04:58:43.774Z,60.15
2022-11-05T05:03:48.530Z,60.45
2022-11-05T05:08:53.249Z,60.00
2022-11-05T05:13:56.603Z,59.97
2022-11-05T05:19:00.020Z,60.32
2022-11-05T05:24:05.140Z,60.17
2022-11-05T05:29:09.110Z,59.83
2022-11-05T05:34:13.925Z,59.86
2022-11-05T05:39:18.412Z,58.97
2022-11-05T05:44:21.965Z,59.87
2022-11-05T05:49:25.236Z,59.49
2022-11-05T05:54:32.913Z,59.36
2022-11-05T05:59:37.601Z,59.43
2022-11-05T06:04:40.864Z,59.10
2022-11-05T06:09:45.728Z,59.15
2022-11-05T06:14:49.277Z,59.14
2022-11-05T06:19:52.791Z,58.82
2022-11-05T06:24:57.561Z,58.63
2022-11-05T06:30:00.975Z,59.17
2022-11-05T06:35:04.398Z,58.74
2022-11-05T06:40:10.505Z,58.51
2022-11-05T06:45:13.724Z,59.00
2022-11-05T06:50:17.255Z,59.08
2022-11-05T06:55:21.984Z,58.46
2022-11-05T07:00:25.796Z,58.61
2022-11-05T07:05:29.053Z,58.35
2022-11-05T07:10:34.168Z,58.22
2022-11-05T07:15:38.613Z,58.30
2022-11-05T07:20:42.069Z,58.06
2022-11-05T07:25:46.885Z,57.87
2022-11-05T07:30:50.148Z,57.75
2022-11-05T07:35:53.433Z,57.76
2022-11-05T07:41:00.617Z,56.94
2022-11-05T07:46:03.926Z,57.51
2022-11-05T07:51:07.339Z,57.39
2022-11-05T07:56:12.416Z,57.76
2022-11-05T08:01:15.816Z,57.20
2022-11-05T08:06:19.251Z,57.18
2022-11-05T08:11:24.254Z,57.12
2022-11-05T08:16:28.061Z,57.04
2022-11-05T08:21:31.292Z,57.32
2022-11-05T08:26:36.054Z,57.07
2022-11-05T08:31:39.460Z,56.79
2022-11-05T08:36:46.620Z,56.93
2022-11-05T08:41:51.442Z,57.33
2022-11-05T08:46:56.646Z,56.74
2022-11-05T08:51:59.997Z,58.29
2022-11-05T08:57:04.806Z,58.06
2022-11-05T09:02:08.713Z,57.83
2022-11-05T09:07:12.337Z,57.36
2022-11-05T09:12:17.234Z,57.39
2022-11-05T09:17:21.997Z,57.44
2022-11-05T09:22:25.391Z,57.42
2022-11-05T09:27:29.992Z,57.54
2022-11-05T09:32:33.383Z,57.64
2022-11-05T09:37:37.377Z,57.13
2022-11-05T09:42:47.152Z,57.43
2022-11-05T09:47:54.979Z,57.70
2022-11-05T09:52:59.208Z,57.16
2022-11-05T09:58:08.085Z,57.42
2022-11-05T10:03:17.271Z,57.41
2022-11-05T10:08:24.579Z,56.88
2022-11-05T10:13:38.272Z,57.16
2022-11-05T10:18:44.680Z,57.08
2022-11-05T10:23:48.921Z,57.27
2022-11-05T10:28:54.657Z,57.29
2022-11-05T10:34:02.372Z,57.27
2022-11-05T10:39:12.944Z,57.33
2022-11-05T10:44:29.726Z,57.02
2022-11-05T10:49:48.465Z,57.76
2022-11-05T10:54:56.486Z,57.36
2022-11-05T11:00:26.431Z,57.73
2022-11-05T11:05:33.963Z,58.05
2022-11-05T11:10:42.350Z,57.80
2022-11-05T11:15:47.452Z,58.06
2022-11-05T11:20:50.873Z,57.59
2022-11-05T11:26:02.923Z,58.00
2022-11-05T11:31:12.044Z,57.71
2022-11-05T11:36:19.776Z,58.04
2022-11-05T11:41:27.067Z,57.96
2022-11-05T11:46:36.305Z,57.95
2022-11-05T11:51:49.654Z,58.22
2022-11-05T11:56:53.493Z,58.23
2022-11-05T12:02:44.258Z,57.47
2022-11-05T12:07:53.261Z,57.53
2022-11-05T12:13:27.365Z,57.79
2022-11-05T12:18:44.159Z,57.92
2022-11-05T12:24:15.837Z,57.43
2022-11-05T12:29:36.134Z,57.90
2022-11-05T12:34:49.881Z,57.53
2022-11-05T12:40:04.548Z,58.09
2022-11-05T12:45:28.668Z,57.89
2022-11-05T12:50:41.250Z,58.25
2022-11-05T12:55:49.733Z,57.77
2022-11-05T13:00:58.540Z,58.20
2022-11-05T13:06:09.007Z,57.90
2022-11-05T13:11:21.148Z,58.36
2022-11-05T13:16:31.079Z,58.38
2022-11-05T13:21:37.434Z,58.30
2022-11-05T13:26:48.462Z,58.29
2022-11-05T13:31:57.889Z,58.72
2022-11-05T13:37:23.001Z,58.39
2022-11-05T13:42:46.033Z,58.58
2022-11-05T13:48:19.654Z,58.59
2022-11-05T13:53:47.645Z,58.60
2022-11-05T13:59:21.175Z,58.64
2022-11-05T14:04:32.243Z,58.92
2022-11-05T14:09:38.985Z,58.77
2022-11-05T14:14:47.164Z,58.80
2022-11-05T14:19:53.362Z,59.18
2022-11-05T14:24:58.273Z,58.90
2022-11-05T14:30:02.050Z,58.47
2022-11-05T14:35:35.884Z,58.45
2022-11-05T14:40:42.463Z,59.48
2022-11-05T14:45:55.796Z,58.96
2022-11-05T14:51:00.500Z,59.18
2022-11-05T14:56:08.495Z,59.44
2022-11-05T15:01:49.773Z,59.18
2022-11-05T15:07:28.686Z,59.27
2022-11-05T15:12:38.561Z,59.38
2022-11-05T15:17:51.308Z,59.09
2022-11-05T15:23:00.187Z,59.17
2022-11-05T15:28:12.061Z,59.74
2022-11-05T15:33:22.322Z,59.77
2022-11-05T15:38:35.127Z,59.22
2022-11-05T15:43:47.958Z,59.90
2022-11-05T15:48:54.451Z,59.26
2022-11-05T15:59:27.197Z,59.60
2022-11-05T16:04:32.613Z,59.77
2022-11-05T16:09:40.087Z,59.63
2022-11-05T16:14:45.391Z,59.84
2022-11-05T16:19:49.926Z,59.85
2022-11-05T16:24:53.987Z,59.86
2022-11-05T16:29:59.065Z,59.81
2022-11-05T16:35:05.424Z,60.09
2022-11-05T16:40:15.495Z,59.71
2022-11-05T16:45:23.067Z,59.75
2022-11-05T16:50:31.782Z,59.83
2022-11-05T16:55:37.650Z,59.94
2022-11-05T17:00:42.448Z,60.11
2022-11-05T17:05:45.531Z,60.25
2022-11-05T17:10:48.881Z,60.33
2022-11-05T17:15:54.836Z,60.47
2022-11-05T17:20:58.399Z,60.41
2022-11-05T17:26:03.793Z,60.98
2022-11-05T17:31:10.256Z,60.07
2022-11-05T17:36:16.195Z,59.83
2022-11-05T17:41:22.436Z,60.90
2022-11-05T17:46:27.192Z,60.74
2022-11-05T17:51:30.657Z,60.92
2022-11-05T17:56:40.283Z,60.57
2022-11-05T18:01:48.900Z,60.18
2022-11-05T18:06:52.290Z,60.29
2022-11-05T18:11:55.747Z,60.42
2022-11-05T18:17:00.933Z,60.48
2022-11-05T18:22:04.386Z,60.74
2022-11-05T18:27:09.344Z,61.06
2022-11-05T18:32:14.204Z,60.86
2022-11-05T18:37:17.334Z,60.52
2022-11-05T18:42:20.720Z,60.67
2022-11-05T18:47:25.685Z,60.76
2022-11-05T18:52:31.645Z,61.29
2022-11-05T18:57:35.621Z,61.12
2022-11-05T19:02:40.728Z,61.31
2022-11-05T19:07:44.330Z,61.06
2022-11-05T19:12:47.613Z,60.98
2022-11-05T19:17:53.001Z,61.68
2022-11-05T19:22:56.281Z,61.09
2022-11-05T19:27:59.592Z,61.39
2022-11-05T19:33:04.858Z,61.85
2022-11-05T19:38:08.322Z,62.52
2022-11-05T19:43:11.846Z,61.72
2022-11-05T19:48:21.140Z,61.58
2022-11-05T19:53:24.706Z,62.10
2022-11-05T19:58:27.959Z,61.57
2022-11-05T20:03:33.952Z,61.66
2022-11-05T20:08:59.373Z,61.66
2022-11-05T20:14:01.719Z,61.43
2022-11-05T20:19:09.056Z,61.69
2022-11-05T20:24:17.419Z,61.81
2022-11-05T20:29:34.764Z,61.56
2022-11-05T20:34:40.282Z,61.72
2022-11-05T20:39:46.545Z,62.43
2022-11-05T20:44:50.722Z,62.47
2022-11-05T20:49:55.675Z,62.61
2022-11-05T20:54:59.046Z,62.27
2022-11-05T21:00:02.624Z,62.11
2022-11-05T21:05:09.612Z,62.21
2022-11-05T21:10:12.981Z,62.67
2022-11-05T21:15:20.321Z,62.69
2022-11-05T21:20:25.892Z,62.03
2022-11-05T21:25:29.349Z,63.07
2022-11-05T21:30:33.020Z,62.29
2022-11-05T21:35:41.202Z,62.34
2022-11-05T21:40:45.224Z,62.92
2022-11-05T21:45:48.654Z,62.48
2022-11-05T21:51:12.170Z,62.57
2022-11-05T21:56:37.489Z,61.88
2022-11-05T22:01:40.969Z,62.42
2022-11-05T22:06:45.806Z,62.87
2022-11-05T22:11:49.114Z,62.18
2022-11-05T22:16:52.526Z,62.45
2022-11-05T22:21:57.284Z,62.32
2022-11-05T22:27:00.523Z,62.58
2022-11-05T22:32:03.951Z,62.30
2022-11-05T22:37:09.214Z,62.69
2022-11-05T22:42:12.763Z,62.52
2022-11-05T22:47:18.190Z,62.49
2022-11-05T22:52:22.823Z,62.87
2022-11-05T22:57:26.097Z,62.57
2022-11-05T23:02:29.578Z,62.47
2022-11-05T23:07:51.665Z,62.48
2022-11-05T23:12:56.076Z,62.31
2022-11-05T23:18:17.189Z,62.19
2022-11-05T23:23:39.158Z,61.85
2022-11-05T23:28:42.396Z,61.99
2022-11-05T23:33:45.859Z,62.29
2022-11-05T23:38:50.454Z,61.88
2022-11-05T23:44:11.369Z,62.19
2022-11-05T23:49:14.849Z,62.34
2022-11-05T23:54:19.683Z,62.75
2022-11-05T23:59:22.754Z,62.02
